Mc Guffey, Ohio
Current Conditions -  °F | °C
As of 2:53 AM on Thursday 18 Dec 2014 (Local Time) from KAOH Reporting Station
Overcast Overcast  
Wind Chill: 21°   Ceiling: 2100
Heat Index: 30°   Visibility: 10mi
Dew Point: 20°   Wind: 12mph
Humidity: 66%   Direction: 310°NW
Pressure: 30.23"   Gusts: NA
Location:  40.6943°N, 83.7835°W
Report Text: KAOH 180753Z AUTO 31010KT 10SM OVC021 M01/M07 A3023 RMK AO2 SLP248 T10111067
Loading
Personal Weather Stations






























Interactive Weather Map New forecast layout! Learn more

10-Day Weather Forecast

Advertisements
Track Severe Weather on mobile